Aviation Digital Data Service (ADDS)

Output produced by METARs form (0727 UTC 28 August 2015)
found at http://aviationweather.gov/adds/metars/
 
KDAG 280650Z AUTO 28005KT 10SM CLR 33/02 A2997 RMK AO2 SLP114 T03280017
KDAG 280531Z 2806/2906 24012KT P6SM SKC 
     FM280800 27008KT P6SM SKC 
     FM281600 30008KT P6SM SKC 
     FM281900 01007KT P6SM SKC 
     FM282300 30007KT P6SM SKC 
     FM290400 23015KT P6SM SKC
       
KEDW 280658Z AUTO 21006KT 10SM CLR 26/04 A2999 RMK AO2 SLP127 T02560039
TAF KEDW 2802/2908 27013G18KT 9999 FEW130 SCT350 QNH2992INS 
     TEMPO 2802/2804 29018G25KT 510009 
     BECMG 2804/2805 23009KT 9999 FEW350 QNH2998INS 
     BECMG 2820/2821 24013G18KT 9999 BKN330 QNH2988INS 
     TEMPO 2823/2903 25018G26KT 510009 
     BECMG 2904/2905 27009KT 9999 SCT350 QNH2995INS TX40/2822Z TN20/2813Z
       
KVCV 280715Z AUTO 00000KT 10SM CLR 24/07 A3005 RMK AO2
KONT 280653Z 22003KT 10SM CLR 27/13 A2994 RMK AO2 SLP114 T02720133
KONT 280520Z 2806/2912 VRB05KT P6SM SKC 
     FM282000 26012KT P6SM FEW100 
     FM290400 VRB05KT P6SM SKC
       
KSNA 280653Z AUTO 00000KT 10SM CLR 24/19 A2991 RMK AO2 SLP125 T02390189 TSNO
KSNA 280520Z 2806/2906 VRB05KT P6SM SKC 
     FM281300 VRB03KT P6SM SCT009 
     FM281600 VRB03KT P6SM FEW011 
     FM282000 22010KT P6SM SKC 
     FM290300 VRB04KT P6SM FEW008
       
KSAN 280651Z 00000KT 10SM CLR 24/19 A2992 RMK AO2 SLP130 T02440194
KSAN 280520Z 2806/2912 VRB03KT P6SM FEW150 
     FM281200 VRB03KT P6SM SCT009 
     FM281600 VRB05KT P6SM FEW015 
     FM282000 26009KT P6SM SKC 
     FM290300 VRB04KT P6SM FEW010 
     FM291000 VRB03KT P6SM BKN010
       
KNID 280656Z AUTO 21009KT 10SM CLR 29/03 A2997 RMK AO2 SLP121 T02940028 $
TAF KNID 2723/2823 VRB05KT 9999 SKC QNH2992INS 
     BECMG 2812/2814 21006KT 9999 SCT280 QNH2990INS 
     BECMG 2820/2822 24015G25KT 9999 SCT350 520009 QNH2984INS T18/2813Z T40/2823Z
       
KNXP 280656Z AUTO 26009KT 10SM CLR 33/09 A3002 RMK AO2 WSHFT 0557 SLP123 T03280089 $
TAF KNXP 2803/2903 20007KT 9999 FEW100 QNH2994INS 
     BECMG 2805/2807 27007KT 9999 FEW100 QNH2997INS 
     BECMG 2815/2817 VRB05KT 9999 FEW100 QNH2986INS T26/2813Z T39/2823Z
       
KPSP 280653Z 32009KT 10SM CLR 36/12 A2985 RMK AO2 SLP103 T03610122
KPSP 280520Z 2806/2906 VRB06KT P6SM SKC 
     FM281900 10009KT P6SM SKC 
     FM290400 VRB06KT P6SM SKC
       
KLAX 280653Z 00000KT 10SM CLR 24/19 A2991 RMK AO2 SLP127 T02390194 $
KLAX 280523Z 2806/2912 VRB03KT P6SM SCT150 
     FM281700 26006KT P6SM SKC 
     FM282000 26012KT P6SM SKC 
     FM290300 26006KT P6SM SKC 
     FM290600 VRB03KT P6SM SKC
       
KCNO 280653Z AUTO 00000KT 9SM CLR 25/14 A2994 RMK AO2 SLP130 T02500144
KSMO 280651Z AUTO 18003KT 10SM CLR 23/21 A2992 RMK AO2 SLP128 T02280211
KLGB 280653Z 20003KT 10SM CLR 24/21 A2991 RMK AO2 SLP127 T02390211 $
KLGB 280523Z 2806/2906 VRB03KT P6SM SKC 
     FM282000 20008KT P6SM SKC 
     FM282300 29008KT P6SM SKC 
     FM290400 VRB03KT P6SM SKC
       
KVNY 280651Z 00000KT 10SM CLR 26/17 A2992 RMK AO2 SLP121 T02560167
KVNY 280523Z 2806/2906 VRB03KT P6SM SKC 
     FM281900 15008KT P6SM SKC 
     FM290000 30006KT P6SM SKC
       
KBUR 280653Z 09004KT 10SM CLR 26/16 A2992 RMK AO2 SLP118 T02610161
KBUR 280523Z 2806/2906 VRB03KT P6SM SKC 
     FM281900 18008KT P6SM SKC 
     FM290300 12006KT P6SM SKC
       
KBFL 280654Z AUTO 00000KT 10SM CLR 28/07 A2992 RMK AO2 SLP126 T02830072
KBFL 280522Z 2806/2906 VRB04KT P6SM SKC
       
KPMD 280653Z AUTO 21006KT 10SM CLR 26/04 A3003 RMK AO2 SLP135 T02610044
KPMD 280523Z 2806/2906 22008KT P6SM SKC 
     FM281500 VRB05KT P6SM SKC 
     FM281800 27008KT P6SM SKC 
     FM282300 25016G22KT P6SM SKC 
     FM290200 27012KT P6SM SKC
       
KOXR 280651Z AUTO 16005KT 9SM CLR 23/19 A2989 RMK AO2 SLP119 T02280189
KOXR 280523Z 2806/2906 VRB03KT P6SM SKC 
     FM281800 26008KT P6SM SKC 
     FM290400 VRB03KT P6SM SKC
       
KWJF 280656Z 26008KT 10SM CLR 27/04 A3002 RMK AO2 SLP137 T02720039
KWJF 280523Z 2806/2906 26010KT P6SM SKC 
     FM281300 VRB05KT P6SM SKC 
     FM281800 23006KT P6SM SKC 
     FM282100 23012KT P6SM SKC 
     FM282300 24018G25KT P6SM SKC 
     FM290200 27014KT P6SM SKC
       
KCMA 280655Z 00000KT 10SM CLR 22/16 A2989 RMK AO2 SLP127 T02220156
KFAT 280653Z 29008KT 10SM BKN200 29/09 A2991 RMK AO2 SLP123 T02890094
KFAT 280522Z 2806/2906 31008KT P6SM SCT200 
     FM281200 VRB03KT P6SM FEW150 SCT200
       
KEED 280656Z AUTO 00000KT 10SM CLR 36/15 A2987 RMK AO2 SLP075 T03560150
KEED 280531Z 2806/2906 24006KT P6SM SCT100 
     FM281000 VRB04KT P6SM SKC 
     FM281600 05006KT P6SM SKC 
     FM282100 19007KT P6SM FEW120 
     FM290200 23007KT P6SM SKC
       
KLSV 280658Z AUTO 30003KT 10SM CLR 31/09 A2993 RMK AO2 SLP108 T03100091
TAF KLSV 2801/2907 30009KT 9999 FEW110 QNH2989INS 
     BECMG 2804/2805 03009KT 9999 SCT130 QNH2988INS 
     BECMG 2820/2821 18009KT 9999 SKC QNH2980INS TX40/2822Z TN27/2812Z
       
KLAS 280656Z 25004KT 10SM FEW200 32/11 A2993 RMK AO2 SLP103 T03220106
KLAS 280531Z 2806/2906 25006KT P6SM FEW200 
     FM281500 VRB05KT P6SM SKC 
     FM282000 12007KT P6SM FEW100 
     FM290300 21007KT P6SM FEW100
       
KHII 280710Z AUTO 22003KT 10SM CLR 34/15 A2987 RMK AO2
KIFP 280715Z AUTO 08006KT 10SM CLR 34/14 A2987 RMK AO2
KIFP 280531Z 2806/2906 22008KT P6SM FEW200 
     FM282100 22007KT P6SM FEW120 
     FM290200 VRB05KT P6SM SKC